Time;durP1;ratioP1;P1;durP2;ratioP2;P2;SDS_P1;SDS_P2;PMS_P1;PMS_P2;Temp;Humidity;BMP_temperature;BMP_pressure;BME280_temperature;BME280_humidity;BME280_pressure;Samples;Min_cycle;Max_cycle;Signal;HPM_P1;HPM_P2
2021/11/02 00:01:14;;;;;;;29.10;20.90;;;;;;;5.71;65.76;98260.66;461863;1190;141752;-61
2021/11/02 00:11:20;;;;;;;34.00;25.10;;;;;;;5.39;66.41;98255.61;461535;1190;142690;-61
2021/11/02 00:21:28;;;;;;;31.60;24.60;;;;;;;5.16;66.85;98246.67;461271;1189;141295;-59
2021/11/02 00:31:35;;;;;;;39.10;24.80;;;;;;;4.98;67.28;98246.54;462039;1190;142855;-61
2021/11/02 00:41:43;;;;;;;36.90;25.30;;;;;;;4.85;67.88;98248.91;460877;1190;140778;-60
2021/11/02 00:51:50;;;;;;;33.50;26.10;;;;;;;4.80;68.09;98242.23;463103;1189;141698;-65
2021/11/02 01:01:56;;;;;;;33.70;24.60;;;;;;;4.93;68.50;98232.83;475642;1189;141489;-64
2021/11/02 01:12:04;;;;;;;30.60;23.90;;;;;;;5.13;68.42;98253.44;469350;1190;143323;-64
2021/11/02 01:22:10;;;;;;;32.10;23.20;;;;;;;5.25;68.24;98241.71;474113;1190;141976;-63
2021/11/02 01:32:17;;;;;;;31.20;22.90;;;;;;;5.31;68.21;98222.05;477670;1190;140825;-64
2021/11/02 01:42:25;;;;;;;35.00;24.10;;;;;;;5.42;68.23;98208.34;473940;1189;142534;-64
2021/11/02 01:52:32;;;;;;;33.70;24.00;;;;;;;5.55;68.03;98196.77;477891;1189;141906;-65
2021/11/02 02:02:45;;;;;;;33.20;22.80;;;;;;;5.54;67.82;98186.39;476968;1190;141276;-64
2021/11/02 02:13:06;;;;;;;31.00;23.70;;;;;;;5.52;68.08;98176.80;474830;1189;140846;-64
2021/11/02 02:23:32;;;;;;;32.30;23.80;;;;;;;5.55;68.09;98174.38;477931;1190;140825;-64
2021/11/02 02:33:41;;;;;;;29.00;22.90;;;;;;;5.57;68.32;98172.36;478059;1189;143873;-65
2021/11/02 02:43:48;;;;;;;29.10;21.70;;;;;;;5.59;68.34;98155.87;478080;1189;142434;-65
2021/11/02 02:53:56;;;;;;;30.20;23.80;;;;;;;5.64;68.42;98149.52;477336;1189;143389;-64
2021/11/02 03:04:06;;;;;;;30.60;22.40;;;;;;;5.69;68.41;98136.62;469318;1189;142080;-64
2021/11/02 03:14:20;;;;;;;31.10;22.90;;;;;;;5.73;68.52;98123.71;473448;1189;147442;-63
2021/11/02 03:55:51;;;;;;;34.60;25.60;;;;;;;6.03;68.58;98105.23;477658;1190;141296;-64
2021/11/02 05:09:05;;;;;;;30.30;24.60;;;;;;;5.95;69.03;98083.35;472856;1195;141071;-64
2021/11/02 05:51:02;;;;;;;31.40;21.50;;;;;;;6.16;69.19;98071.48;474934;1193;140912;-63
2021/11/02 06:01:13;;;;;;;29.70;23.00;;;;;;;6.27;69.21;98081.17;475996;1192;140554;-64
2021/11/02 06:32:22;;;;;;;32.80;23.50;;;;;;;6.56;69.06;98074.10;469726;1193;141009;-63
2021/11/02 06:42:53;;;;;;;34.40;24.30;;;;;;;6.62;68.96;98084.30;476083;1192;140907;-64
2021/11/02 07:24:29;;;;;;;;;;;;;;;6.69;69.58;98100.27;475125;1193;141156;-63
2021/11/02 08:48:01;;;;;;;38.60;27.60;;;;;;;7.34;70.32;98082.02;475585;1193;141396;-72
2021/11/02 08:58:07;;;;;;;39.10;28.40;;;;;;;7.44;70.61;98076.39;476554;1193;141451;-71
2021/11/02 09:08:13;;;;;;;34.90;27.90;;;;;;;7.52;70.81;98070.36;476457;1192;139907;-71
2021/11/02 09:18:21;;;;;;;33.00;26.40;;;;;;;7.59;70.91;98071.79;475747;1192;141585;-65
2021/11/02 09:28:30;;;;;;;35.40;28.90;;;;;;;7.65;71.35;98074.66;475333;1192;140700;-68
2021/11/02 09:38:46;;;;;;;35.00;26.80;;;;;;;7.65;71.65;98070.60;465476;1192;141553;-64
2021/11/02 09:49:32;;;;;;;33.30;28.40;;;;;;;7.74;72.09;98065.27;476486;1192;139668;-66
2021/11/02 10:00:05;;;;;;;35.80;27.10;;;;;;;7.72;72.16;98065.23;468580;1192;141580;-65
2021/11/02 10:10:16;;;;;;;37.10;28.80;;;;;;;7.56;72.66;98058.58;476586;1192;141195;-64
2021/11/02 10:20:40;;;;;;;41.00;29.60;;;;;;;7.46;73.08;98057.78;473750;1192;140522;-66
2021/11/02 10:30:54;;;;;;;39.20;29.50;;;;;;;7.40;73.55;98045.30;454387;1192;10003251;-56
2021/11/02 10:41:14;;;;;;;41.90;31.80;;;;;;;7.46;73.90;98039.71;471457;1179;140883;-58
2021/11/02 10:51:43;;;;;;;41.60;32.40;;;;;;;7.50;74.39;98034.14;466313;1192;143293;-59
2021/11/02 11:01:51;;;;;;;46.00;30.80;;;;;;;7.53;74.60;98033.78;459466;1193;141404;-59
2021/11/02 11:12:01;;;;;;;41.90;33.50;;;;;;;7.48;74.98;98036.02;464201;1193;141084;-59
2021/11/02 11:22:08;;;;;;;39.10;31.60;;;;;;;7.46;75.33;98031.48;468557;1193;140462;-59
2021/11/02 11:32:19;;;;;;;38.20;29.70;;;;;;;7.43;75.79;98034.48;460403;1192;141420;-58
2021/11/02 11:42:30;;;;;;;39.50;31.80;;;;;;;7.46;76.03;98033.58;470200;1192;140960;-58
2021/11/02 11:52:46;;;;;;;42.40;33.30;;;;;;;7.47;76.45;98032.98;459838;1193;141057;-59
2021/11/02 12:03:01;;;;;;;41.00;31.70;;;;;;;7.58;76.84;98031.85;459948;1193;144277;-61
2021/11/02 12:13:11;;;;;;;36.80;31.90;;;;;;;7.73;77.07;98025.62;465642;1192;144232;-61
2021/11/02 12:23:40;;;;;;;39.60;31.30;;;;;;;7.83;76.96;98027.30;471969;1192;142054;-59
2021/11/02 12:33:49;;;;;;;37.00;31.40;;;;;;;7.83;77.07;98026.61;466227;1193;142234;-61
2021/11/02 12:44:08;;;;;;;40.40;33.80;;;;;;;7.82;77.36;98025.94;460331;1192;140103;-60
2021/11/02 12:54:23;;;;;;;41.50;33.10;;;;;;;7.84;77.60;98031.58;469298;1192;141925;-60
2021/11/02 13:04:37;;;;;;;44.90;34.10;;;;;;;7.88;77.76;98028.98;476332;1192;151726;-60
2021/11/02 13:14:45;;;;;;;39.30;32.20;;;;;;;7.93;78.07;98029.83;461438;1192;140854;-60
2021/11/02 13:25:06;;;;;;;43.30;34.90;;;;;;;7.98;78.18;98024.73;476689;1192;140806;-60
2021/11/02 13:35:12;;;;;;;37.80;31.50;;;;;;;8.01;78.24;98030.46;465066;1192;140927;-59
2021/11/02 13:45:26;;;;;;;36.00;30.60;;;;;;;8.03;78.51;98032.70;465501;1193;140816;-60
2021/11/02 13:55:32;;;;;;;37.50;30.60;;;;;;;8.04;78.60;98032.80;469661;1193;141005;-59
2021/11/02 14:05:40;;;;;;;41.20;33.50;;;;;;;8.08;78.75;98037.00;471987;1177;141245;-61
2021/11/02 14:15:45;;;;;;;38.90;31.50;;;;;;;8.07;78.81;98030.62;472143;1192;141272;-64
2021/11/02 14:25:51;;;;;;;36.10;29.30;;;;;;;8.00;78.68;98028.77;473451;1193;141635;-66
2021/11/02 14:36:03;;;;;;;36.60;28.60;;;;;;;7.90;78.96;98026.04;465168;1193;141365;-68
2021/11/02 14:46:20;;;;;;;36.40;31.20;;;;;;;7.85;79.23;98027.45;476468;1192;141105;-73
2021/11/02 14:56:36;;;;;;;38.30;30.80;;;;;;;7.79;79.41;98022.38;462708;1193;141175;-55
2021/11/02 15:06:45;;;;;;;35.20;27.60;;;;;;;7.76;79.66;98027.50;476105;1192;196231;-62
2021/11/02 15:16:53;;;;;;;33.90;26.50;;;;;;;7.74;79.67;98030.07;476544;1192;140976;-64
2021/11/02 15:27:03;;;;;;;36.50;30.20;;;;;;;7.77;79.89;98033.52;475651;1193;142416;-65
2021/11/02 15:37:11;;;;;;;33.50;26.70;;;;;;;7.82;79.88;98038.67;475861;1192;141662;-64
2021/11/02 15:47:28;;;;;;;38.50;31.60;;;;;;;7.83;79.84;98039.27;446778;1193;10003056;-62
2021/11/02 15:57:40;;;;;;;30.60;25.30;;;;;;;7.77;79.89;98051.06;470320;1192;206874;-65
2021/11/02 16:07:46;;;;;;;30.70;27.30;;;;;;;7.74;80.05;98055.89;460812;1193;140970;-64
2021/11/02 16:17:54;;;;;;;29.30;25.10;;;;;;;7.71;80.01;98058.00;469537;1192;140771;-63
2021/11/02 16:28:03;;;;;;;34.20;26.80;;;;;;;7.66;80.32;98068.26;460837;1193;199513;-65
2021/11/02 16:38:28;;;;;;;36.20;29.40;;;;;;;7.65;80.35;98075.18;475701;1192;141149;-64
2021/11/02 16:48:40;;;;;;;33.40;27.40;;;;;;;7.64;80.34;98076.31;476399;1192;144114;-63
2021/11/02 16:58:51;;;;;;;32.80;25.40;;;;;;;7.63;80.51;98077.38;476210;1192;141198;-64
2021/11/02 17:09:16;;;;;;;35.00;29.10;;;;;;;7.66;80.35;98085.03;466593;1177;141642;-62
2021/11/02 17:19:28;;;;;;;35.20;29.10;;;;;;;7.68;80.60;98091.49;463153;1192;140929;-63
2021/11/02 17:29:34;;;;;;;32.90;29.40;;;;;;;7.65;80.57;98095.05;462224;1193;141178;-64
2021/11/02 17:39:41;;;;;;;32.00;26.70;;;;;;;7.64;80.78;98099.07;471579;1192;141246;-63
2021/11/02 17:49:47;;;;;;;30.50;26.60;;;;;;;7.66;80.75;98102.62;476285;1192;141798;-64
2021/11/02 17:59:53;;;;;;;47.50;33.50;;;;;;;7.69;80.73;98102.04;467961;1193;143533;-63
2021/11/02 18:10:01;;;;;;;35.80;27.10;;;;;;;7.80;81.01;98104.82;463117;1192;10002023;-64
2021/11/02 18:20:10;;;;;;;26.30;19.70;;;;;;;7.78;80.90;98110.22;460658;1193;142367;-62
2021/11/02 18:30:17;;;;;;;24.70;20.20;;;;;;;7.69;80.79;98112.80;468092;1193;141072;-64
2021/11/02 18:40:24;;;;;;;14.60;10.90;;;;;;;7.63;80.93;98113.77;468062;1193;140895;-64
2021/11/02 18:50:32;;;;;;;10.90;9.70;;;;;;;7.55;80.84;98115.40;464715;1184;141992;-63
2021/11/02 19:00:38;;;;;;;9.00;7.00;;;;;;;7.42;80.63;98123.20;474249;1193;140842;-66
2021/11/02 19:10:47;;;;;;;14.20;9.90;;;;;;;7.35;80.74;98132.73;469837;1192;193954;-65
2021/11/02 19:20:53;;;;;;;11.50;10.20;;;;;;;7.31;80.94;98131.27;469273;1192;146778;-62
2021/11/02 19:31:01;;;;;;;10.40;8.70;;;;;;;7.26;81.06;98135.29;467866;1192;140772;-63
2021/11/02 19:41:08;;;;;;;10.40;9.10;;;;;;;7.21;81.14;98143.69;461552;1193;142077;-64
2021/11/02 19:51:16;;;;;;;13.30;9.20;;;;;;;7.20;81.19;98152.09;475031;1192;141424;-64
2021/11/02 20:01:28;;;;;;;8.90;7.40;;;;;;;7.19;81.01;98151.84;463884;1193;141267;-64
2021/11/02 20:11:36;;;;;;;8.20;7.30;;;;;;;7.13;81.00;98155.38;475220;1192;141279;-65
2021/11/02 20:21:43;;;;;;;8.50;7.50;;;;;;;7.12;80.96;98165.91;475779;1192;140863;-64
2021/11/02 20:31:51;;;;;;;10.80;8.50;;;;;;;7.10;80.92;98175.27;476240;1192;141055;-63
2021/11/02 20:41:59;;;;;;;11.40;10.30;;;;;;;7.07;81.09;98178.66;467531;1192;141158;-63
2021/11/02 20:52:07;;;;;;;15.20;12.20;;;;;;;7.06;81.33;98183.63;472335;1193;141861;-65
2021/11/02 21:02:18;;;;;;;15.40;12.00;;;;;;;7.04;81.38;98186.86;471293;1192;142214;-64
2021/11/02 21:12:26;;;;;;;16.60;12.70;;;;;;;7.04;81.40;98191.20;475399;1193;141364;-64
2021/11/02 21:22:34;;;;;;;15.30;12.90;;;;;;;7.08;81.57;98201.39;465944;1191;141384;-64
2021/11/02 21:32:40;;;;;;;;;;;;;;;7.12;81.53;98203.89;471181;1191;141156;-64
2021/11/02 21:42:54;;;;;;;16.40;14.20;;;;;;;7.12;81.52;98207.86;477354;1191;126598;-65
2021/11/02 21:53:11;;;;;;;15.50;13.50;;;;;;;7.06;81.60;98212.96;461812;1191;141027;-65
2021/11/02 22:03:21;;;;;;;17.30;13.20;;;;;;;7.05;81.79;98209.07;463456;1191;141189;-64
2021/11/02 22:13:27;;;;;;;16.00;13.60;;;;;;;7.07;81.88;98208.77;464055;1191;141469;-67
2021/11/02 22:23:34;;;;;;;19.90;15.70;;;;;;;7.10;81.85;98205.55;460249;1191;141514;-63
2021/11/02 22:33:42;;;;;;;20.90;15.10;;;;;;;6.97;81.77;98210.98;461408;1191;141251;-63
2021/11/02 22:43:49;;;;;;;16.00;13.80;;;;;;;6.92;82.04;98216.58;462475;1191;140860;-63
2021/11/02 22:53:59;;;;;;;17.60;14.00;;;;;;;6.94;82.01;98224.80;461361;1191;141672;-62
2021/11/02 23:04:06;;;;;;;15.30;13.10;;;;;;;6.93;82.13;98229.58;460428;1191;141198;-65
2021/11/02 23:14:14;;;;;;;15.90;13.50;;;;;;;6.88;82.21;98221.95;477163;1191;141036;-64
2021/11/02 23:24:28;;;;;;;14.20;12.70;;;;;;;6.82;82.17;98218.52;476314;1191;142572;-63
2021/11/02 23:34:37;;;;;;;16.60;12.40;;;;;;;6.75;82.12;98224.59;469954;1191;141254;-66
2021/11/02 23:44:42;;;;;;;13.80;11.90;;;;;;;6.69;82.21;98232.44;476262;1191;143069;-63
2021/11/02 23:54:49;;;;;;;16.60;13.80;;;;;;;6.58;82.35;98238.90;470315;1191;141042;-63
